sensor_id;sensor_type;location;lat;lon;timestamp;P1;durP1;ratioP1;P2;durP2;ratioP2
2838;SDS011;1427;48.510;9.060;2023-12-29T00:02:10;45.30;;;1.60;;
2838;SDS011;1427;48.510;9.060;2023-12-29T00:04:38;46.10;;;2.00;;
2838;SDS011;1427;48.510;9.060;2023-12-29T00:07:06;45.83;;;2.10;;
2838;SDS011;1427;48.510;9.060;2023-12-29T00:09:36;44.67;;;1.50;;
2838;SDS011;1427;48.510;9.060;2023-12-29T00:12:08;45.67;;;1.87;;
2838;SDS011;1427;48.510;9.060;2023-12-29T00:14:36;46.33;;;2.53;;
2838;SDS011;1427;48.510;9.060;2023-12-29T00:17:07;45.30;;;1.63;;
2838;SDS011;1427;48.510;9.060;2023-12-29T00:19:35;45.50;;;2.10;;
2838;SDS011;1427;48.510;9.060;2023-12-29T00:22:03;46.90;;;2.30;;
2838;SDS011;1427;48.510;9.060;2023-12-29T00:24:31;45.40;;;1.67;;
2838;SDS011;1427;48.510;9.060;2023-12-29T00:27:01;47.10;;;1.97;;
2838;SDS011;1427;48.510;9.060;2023-12-29T00:29:29;45.47;;;2.00;;
2838;SDS011;1427;48.510;9.060;2023-12-29T00:32:00;54.93;;;2.20;;
2838;SDS011;1427;48.510;9.060;2023-12-29T00:34:30;48.37;;;2.03;;
2838;SDS011;1427;48.510;9.060;2023-12-29T00:36:58;48.20;;;1.73;;
2838;SDS011;1427;48.510;9.060;2023-12-29T00:39:27;46.07;;;1.97;;
2838;SDS011;1427;48.510;9.060;2023-12-29T00:41:58;46.57;;;1.70;;
2838;SDS011;1427;48.510;9.060;2023-12-29T00:44:27;46.50;;;2.20;;
2838;SDS011;1427;48.510;9.060;2023-12-29T00:46:55;53.53;;;2.53;;
2838;SDS011;1427;48.510;9.060;2023-12-29T00:49:23;46.30;;;2.10;;
2838;SDS011;1427;48.510;9.060;2023-12-29T00:51:51;46.57;;;2.37;;
2838;SDS011;1427;48.510;9.060;2023-12-29T00:54:20;50.50;;;3.40;;
2838;SDS011;1427;48.510;9.060;2023-12-29T00:56:48;46.50;;;1.83;;
2838;SDS011;1427;48.510;9.060;2023-12-29T00:59:17;47.40;;;2.23;;
2838;SDS011;1427;48.510;9.060;2023-12-29T01:01:47;45.33;;;1.60;;
2838;SDS011;1427;48.510;9.060;2023-12-29T01:04:16;46.50;;;1.83;;
2838;SDS011;1427;48.510;9.060;2023-12-29T01:06:45;48.40;;;2.50;;
2838;SDS011;1427;48.510;9.060;2023-12-29T01:09:13;46.40;;;1.90;;
2838;SDS011;1427;48.510;9.060;2023-12-29T01:11:41;47.37;;;1.67;;
2838;SDS011;1427;48.510;9.060;2023-12-29T01:14:09;47.90;;;1.80;;
2838;SDS011;1427;48.510;9.060;2023-12-29T01:16:37;46.10;;;1.70;;
2838;SDS011;1427;48.510;9.060;2023-12-29T01:19:06;45.97;;;2.03;;
2838;SDS011;1427;48.510;9.060;2023-12-29T01:21:37;46.67;;;2.20;;
2838;SDS011;1427;48.510;9.060;2023-12-29T01:24:05;47.90;;;2.80;;
2838;SDS011;1427;48.510;9.060;2023-12-29T01:26:36;49.63;;;2.70;;
2838;SDS011;1427;48.510;9.060;2023-12-29T01:29:05;46.77;;;2.27;;
2838;SDS011;1427;48.510;9.060;2023-12-29T01:31:33;47.00;;;2.23;;
2838;SDS011;1427;48.510;9.060;2023-12-29T01:34:01;50.47;;;2.17;;
2838;SDS011;1427;48.510;9.060;2023-12-29T01:36:31;45.47;;;1.57;;
2838;SDS011;1427;48.510;9.060;2023-12-29T01:38:59;45.20;;;1.77;;
2838;SDS011;1427;48.510;9.060;2023-12-29T01:41:29;46.70;;;2.43;;
2838;SDS011;1427;48.510;9.060;2023-12-29T01:44:15;45.70;;;1.87;;
2838;SDS011;1427;48.510;9.060;2023-12-29T01:46:46;45.33;;;1.73;;
2838;SDS011;1427;48.510;9.060;2023-12-29T01:49:18;45.63;;;1.60;;
2838;SDS011;1427;48.510;9.060;2023-12-29T01:51:50;46.07;;;1.90;;
2838;SDS011;1427;48.510;9.060;2023-12-29T01:54:21;45.77;;;1.80;;
2838;SDS011;1427;48.510;9.060;2023-12-29T01:56:51;46.30;;;1.93;;
2838;SDS011;1427;48.510;9.060;2023-12-29T01:59:22;50.43;;;2.90;;
2838;SDS011;1427;48.510;9.060;2023-12-29T02:01:53;51.27;;;2.63;;
2838;SDS011;1427;48.510;9.060;2023-12-29T02:04:23;45.77;;;2.00;;
2838;SDS011;1427;48.510;9.060;2023-12-29T02:06:54;45.27;;;1.73;;
2838;SDS011;1427;48.510;9.060;2023-12-29T02:09:23;47.90;;;1.80;;
2838;SDS011;1427;48.510;9.060;2023-12-29T02:11:51;45.80;;;1.90;;
2838;SDS011;1427;48.510;9.060;2023-12-29T02:14:19;46.60;;;2.20;;
2838;SDS011;1427;48.510;9.060;2023-12-29T02:16:54;47.27;;;2.67;;
2838;SDS011;1427;48.510;9.060;2023-12-29T02:19:34;46.93;;;2.33;;
2838;SDS011;1427;48.510;9.060;2023-12-29T02:22:08;47.20;;;2.50;;
2838;SDS011;1427;48.510;9.060;2023-12-29T02:24:37;45.93;;;2.17;;
2838;SDS011;1427;48.510;9.060;2023-12-29T02:30:02;45.93;;;1.90;;
2838;SDS011;1427;48.510;9.060;2023-12-29T02:32:38;46.57;;;1.97;;
2838;SDS011;1427;48.510;9.060;2023-12-29T02:35:09;47.47;;;2.67;;
2838;SDS011;1427;48.510;9.060;2023-12-29T02:37:40;50.53;;;3.70;;
2838;SDS011;1427;48.510;9.060;2023-12-29T02:40:09;45.40;;;1.43;;
2838;SDS011;1427;48.510;9.060;2023-12-29T02:42:40;47.00;;;2.17;;
2838;SDS011;1427;48.510;9.060;2023-12-29T02:45:12;46.97;;;2.10;;
2838;SDS011;1427;48.510;9.060;2023-12-29T02:47:41;45.50;;;1.90;;
2838;SDS011;1427;48.510;9.060;2023-12-29T02:50:09;45.60;;;2.10;;
2838;SDS011;1427;48.510;9.060;2023-12-29T02:52:38;48.60;;;2.43;;
2838;SDS011;1427;48.510;9.060;2023-12-29T02:55:06;47.70;;;2.07;;
2838;SDS011;1427;48.510;9.060;2023-12-29T02:57:35;46.50;;;2.00;;
2838;SDS011;1427;48.510;9.060;2023-12-29T03:00:05;47.00;;;2.50;;
2838;SDS011;1427;48.510;9.060;2023-12-29T03:02:34;46.57;;;2.20;;
2838;SDS011;1427;48.510;9.060;2023-12-29T03:05:02;47.17;;;2.60;;
2838;SDS011;1427;48.510;9.060;2023-12-29T03:07:31;45.77;;;2.30;;
2838;SDS011;1427;48.510;9.060;2023-12-29T03:09:59;51.07;;;3.10;;
2838;SDS011;1427;48.510;9.060;2023-12-29T03:12:27;47.30;;;2.50;;
2838;SDS011;1427;48.510;9.060;2023-12-29T03:14:57;45.67;;;1.70;;
2838;SDS011;1427;48.510;9.060;2023-12-29T03:17:26;45.77;;;1.83;;
2838;SDS011;1427;48.510;9.060;2023-12-29T03:19:55;47.23;;;2.63;;
2838;SDS011;1427;48.510;9.060;2023-12-29T03:22:23;45.10;;;1.60;;
2838;SDS011;1427;48.510;9.060;2023-12-29T03:24:51;46.50;;;1.80;;
2838;SDS011;1427;48.510;9.060;2023-12-29T03:27:19;49.23;;;1.77;;
2838;SDS011;1427;48.510;9.060;2023-12-29T03:29:47;46.57;;;2.27;;
2838;SDS011;1427;48.510;9.060;2023-12-29T03:32:15;45.73;;;2.03;;
2838;SDS011;1427;48.510;9.060;2023-12-29T03:34:44;45.83;;;1.80;;
2838;SDS011;1427;48.510;9.060;2023-12-29T03:37:13;45.80;;;1.73;;
2838;SDS011;1427;48.510;9.060;2023-12-29T03:39:41;45.87;;;2.00;;
2838;SDS011;1427;48.510;9.060;2023-12-29T03:42:09;45.70;;;1.80;;
2838;SDS011;1427;48.510;9.060;2023-12-29T03:44:37;45.60;;;1.80;;
2838;SDS011;1427;48.510;9.060;2023-12-29T03:47:05;45.80;;;2.10;;
2838;SDS011;1427;48.510;9.060;2023-12-29T03:49:33;46.20;;;1.60;;
2838;SDS011;1427;48.510;9.060;2023-12-29T03:52:03;46.27;;;2.10;;
2838;SDS011;1427;48.510;9.060;2023-12-29T03:54:31;45.80;;;2.00;;
2838;SDS011;1427;48.510;9.060;2023-12-29T03:57:00;46.53;;;2.10;;
2838;SDS011;1427;48.510;9.060;2023-12-29T03:59:28;46.93;;;2.10;;
2838;SDS011;1427;48.510;9.060;2023-12-29T04:01:56;45.60;;;1.80;;
2838;SDS011;1427;48.510;9.060;2023-12-29T04:04:24;45.87;;;1.97;;
2838;SDS011;1427;48.510;9.060;2023-12-29T04:06:52;45.27;;;1.77;;
2838;SDS011;1427;48.510;9.060;2023-12-29T04:09:22;47.93;;;2.10;;
2838;SDS011;1427;48.510;9.060;2023-12-29T04:11:50;45.60;;;1.87;;
2838;SDS011;1427;48.510;9.060;2023-12-29T04:14:18;46.20;;;2.10;;
2838;SDS011;1427;48.510;9.060;2023-12-29T04:16:46;47.83;;;2.23;;
2838;SDS011;1427;48.510;9.060;2023-12-29T04:19:14;45.87;;;2.23;;
2838;SDS011;1427;48.510;9.060;2023-12-29T04:21:42;45.10;;;1.80;;
2838;SDS011;1427;48.510;9.060;2023-12-29T04:24:11;46.20;;;2.00;;
2838;SDS011;1427;48.510;9.060;2023-12-29T04:26:40;47.43;;;2.23;;
2838;SDS011;1427;48.510;9.060;2023-12-29T04:29:09;48.50;;;2.47;;
2838;SDS011;1427;48.510;9.060;2023-12-29T04:31:37;45.53;;;1.80;;
2838;SDS011;1427;48.510;9.060;2023-12-29T04:34:05;46.63;;;1.83;;
2838;SDS011;1427;48.510;9.060;2023-12-29T04:36:33;48.80;;;2.10;;
2838;SDS011;1427;48.510;9.060;2023-12-29T04:39:01;45.93;;;2.30;;
2838;SDS011;1427;48.510;9.060;2023-12-29T04:41:29;44.83;;;1.77;;
2838;SDS011;1427;48.510;9.060;2023-12-29T04:43:58;45.77;;;2.10;;
2838;SDS011;1427;48.510;9.060;2023-12-29T04:46:26;45.57;;;1.70;;
2838;SDS011;1427;48.510;9.060;2023-12-29T04:48:54;49.20;;;2.43;;
2838;SDS011;1427;48.510;9.060;2023-12-29T04:51:22;45.83;;;2.00;;
2838;SDS011;1427;48.510;9.060;2023-12-29T04:53:50;45.77;;;1.90;;
2838;SDS011;1427;48.510;9.060;2023-12-29T04:56:18;45.80;;;1.60;;
2838;SDS011;1427;48.510;9.060;2023-12-29T04:58:46;51.47;;;2.37;;
2838;SDS011;1427;48.510;9.060;2023-12-29T05:01:16;46.40;;;2.10;;
2838;SDS011;1427;48.510;9.060;2023-12-29T05:03:44;45.87;;;1.80;;
2838;SDS011;1427;48.510;9.060;2023-12-29T05:06:12;46.47;;;1.93;;
2838;SDS011;1427;48.510;9.060;2023-12-29T05:08:40;46.00;;;1.70;;
2838;SDS011;1427;48.510;9.060;2023-12-29T05:11:08;46.60;;;1.80;;
2838;SDS011;1427;48.510;9.060;2023-12-29T05:13:36;45.77;;;1.90;;
2838;SDS011;1427;48.510;9.060;2023-12-29T05:16:05;45.53;;;1.63;;
2838;SDS011;1427;48.510;9.060;2023-12-29T05:18:35;46.47;;;2.20;;
2838;SDS011;1427;48.510;9.060;2023-12-29T05:21:03;46.97;;;2.20;;
2838;SDS011;1427;48.510;9.060;2023-12-29T05:23:31;46.97;;;1.90;;
2838;SDS011;1427;48.510;9.060;2023-12-29T05:25:59;45.70;;;2.00;;
2838;SDS011;1427;48.510;9.060;2023-12-29T05:28:27;45.50;;;1.70;;
2838;SDS011;1427;48.510;9.060;2023-12-29T05:30:55;47.50;;;2.53;;
2838;SDS011;1427;48.510;9.060;2023-12-29T05:33:25;45.50;;;1.80;;
2838;SDS011;1427;48.510;9.060;2023-12-29T05:35:55;45.77;;;1.87;;
2838;SDS011;1427;48.510;9.060;2023-12-29T05:38:23;45.70;;;1.80;;
2838;SDS011;1427;48.510;9.060;2023-12-29T05:40:51;46.90;;;2.03;;
2838;SDS011;1427;48.510;9.060;2023-12-29T05:43:19;47.33;;;2.20;;
2838;SDS011;1427;48.510;9.060;2023-12-29T05:45:47;45.67;;;1.77;;
2838;SDS011;1427;48.510;9.060;2023-12-29T05:48:15;46.50;;;2.73;;
2838;SDS011;1427;48.510;9.060;2023-12-29T05:50:43;46.40;;;1.70;;
2838;SDS011;1427;48.510;9.060;2023-12-29T05:53:12;45.60;;;1.87;;
2838;SDS011;1427;48.510;9.060;2023-12-29T05:55:41;47.03;;;2.07;;
2838;SDS011;1427;48.510;9.060;2023-12-29T05:58:10;46.70;;;2.20;;
2838;SDS011;1427;48.510;9.060;2023-12-29T06:00:39;46.90;;;2.30;;
2838;SDS011;1427;48.510;9.060;2023-12-29T06:03:07;47.50;;;2.47;;
2838;SDS011;1427;48.510;9.060;2023-12-29T06:05:35;46.47;;;1.83;;
2838;SDS011;1427;48.510;9.060;2023-12-29T06:08:03;45.37;;;1.57;;
2838;SDS011;1427;48.510;9.060;2023-12-29T06:10:35;45.77;;;1.80;;
2838;SDS011;1427;48.510;9.060;2023-12-29T06:13:03;46.23;;;2.30;;
2838;SDS011;1427;48.510;9.060;2023-12-29T06:15:31;45.17;;;1.80;;
2838;SDS011;1427;48.510;9.060;2023-12-29T06:18:00;45.17;;;1.73;;
2838;SDS011;1427;48.510;9.060;2023-12-29T06:20:28;45.83;;;2.20;;
2838;SDS011;1427;48.510;9.060;2023-12-29T06:22:57;45.67;;;2.27;;
2838;SDS011;1427;48.510;9.060;2023-12-29T06:25:25;45.67;;;2.00;;
2838;SDS011;1427;48.510;9.060;2023-12-29T06:27:54;46.00;;;1.80;;
2838;SDS011;1427;48.510;9.060;2023-12-29T06:30:23;46.37;;;2.40;;
2838;SDS011;1427;48.510;9.060;2023-12-29T06:32:51;46.00;;;2.20;;
2838;SDS011;1427;48.510;9.060;2023-12-29T06:35:19;46.00;;;2.07;;
2838;SDS011;1427;48.510;9.060;2023-12-29T06:37:47;47.63;;;2.47;;
2838;SDS011;1427;48.510;9.060;2023-12-29T06:40:16;45.57;;;1.60;;
2838;SDS011;1427;48.510;9.060;2023-12-29T06:42:44;46.17;;;1.83;;
2838;SDS011;1427;48.510;9.060;2023-12-29T06:45:14;45.87;;;1.90;;
2838;SDS011;1427;48.510;9.060;2023-12-29T06:47:42;46.47;;;2.87;;
2838;SDS011;1427;48.510;9.060;2023-12-29T06:50:10;45.37;;;1.60;;
2838;SDS011;1427;48.510;9.060;2023-12-29T06:52:39;45.47;;;1.77;;
2838;SDS011;1427;48.510;9.060;2023-12-29T06:55:08;45.97;;;2.00;;
2838;SDS011;1427;48.510;9.060;2023-12-29T06:57:36;47.07;;;1.90;;
2838;SDS011;1427;48.510;9.060;2023-12-29T07:00:05;46.17;;;2.20;;
2838;SDS011;1427;48.510;9.060;2023-12-29T07:02:36;45.80;;;2.10;;
2838;SDS011;1427;48.510;9.060;2023-12-29T07:05:05;45.07;;;1.30;;
2838;SDS011;1427;48.510;9.060;2023-12-29T07:07:34;45.47;;;1.67;;
2838;SDS011;1427;48.510;9.060;2023-12-29T07:10:04;48.90;;;2.17;;
2838;SDS011;1427;48.510;9.060;2023-12-29T07:12:33;47.50;;;2.13;;
2838;SDS011;1427;48.510;9.060;2023-12-29T07:15:01;45.10;;;1.57;;
2838;SDS011;1427;48.510;9.060;2023-12-29T07:17:30;50.00;;;2.43;;
2838;SDS011;1427;48.510;9.060;2023-12-29T07:19:59;50.43;;;2.23;;
2838;SDS011;1427;48.510;9.060;2023-12-29T07:22:27;47.80;;;6.27;;
2838;SDS011;1427;48.510;9.060;2023-12-29T07:24:57;47.77;;;4.87;;
2838;SDS011;1427;48.510;9.060;2023-12-29T07:27:25;48.30;;;6.37;;
2838;SDS011;1427;48.510;9.060;2023-12-29T07:29:53;50.10;;;5.53;;
2838;SDS011;1427;48.510;9.060;2023-12-29T07:32:21;46.80;;;3.60;;
2838;SDS011;1427;48.510;9.060;2023-12-29T07:34:49;46.60;;;3.70;;
2838;SDS011;1427;48.510;9.060;2023-12-29T07:37:19;46.47;;;3.87;;
2838;SDS011;1427;48.510;9.060;2023-12-29T07:39:47;47.50;;;5.00;;
2838;SDS011;1427;48.510;9.060;2023-12-29T07:42:15;47.27;;;4.30;;
2838;SDS011;1427;48.510;9.060;2023-12-29T07:44:44;46.30;;;3.70;;
2838;SDS011;1427;48.510;9.060;2023-12-29T07:47:12;46.90;;;3.70;;
2838;SDS011;1427;48.510;9.060;2023-12-29T07:49:41;50.13;;;4.80;;
2838;SDS011;1427;48.510;9.060;2023-12-29T07:52:09;48.77;;;5.97;;
2838;SDS011;1427;48.510;9.060;2023-12-29T07:54:38;51.90;;;6.30;;
2838;SDS011;1427;48.510;9.060;2023-12-29T07:57:06;47.13;;;4.00;;
2838;SDS011;1427;48.510;9.060;2023-12-29T07:59:34;48.50;;;4.83;;
2838;SDS011;1427;48.510;9.060;2023-12-29T08:02:03;46.60;;;3.63;;
2838;SDS011;1427;48.510;9.060;2023-12-29T08:04:31;49.93;;;4.63;;
2838;SDS011;1427;48.510;9.060;2023-12-29T08:07:00;48.10;;;3.90;;
2838;SDS011;1427;48.510;9.060;2023-12-29T08:09:29;48.60;;;4.03;;
2838;SDS011;1427;48.510;9.060;2023-12-29T08:11:58;47.40;;;4.63;;
2838;SDS011;1427;48.510;9.060;2023-12-29T08:14:27;48.20;;;5.10;;
2838;SDS011;1427;48.510;9.060;2023-12-29T08:16:55;47.10;;;4.17;;
2838;SDS011;1427;48.510;9.060;2023-12-29T08:19:23;49.40;;;4.43;;
2838;SDS011;1427;48.510;9.060;2023-12-29T08:21:51;47.97;;;4.33;;
2838;SDS011;1427;48.510;9.060;2023-12-29T08:24:19;47.77;;;4.73;;
2838;SDS011;1427;48.510;9.060;2023-12-29T08:26:47;47.13;;;3.67;;
2838;SDS011;1427;48.510;9.060;2023-12-29T08:29:18;48.10;;;5.57;;
2838;SDS011;1427;48.510;9.060;2023-12-29T08:31:46;54.60;;;5.10;;
2838;SDS011;1427;48.510;9.060;2023-12-29T08:34:14;50.03;;;6.40;;
2838;SDS011;1427;48.510;9.060;2023-12-29T08:36:45;53.07;;;4.40;;
2838;SDS011;1427;48.510;9.060;2023-12-29T08:39:13;49.70;;;4.47;;
2838;SDS011;1427;48.510;9.060;2023-12-29T08:41:41;47.90;;;4.07;;
2838;SDS011;1427;48.510;9.060;2023-12-29T08:44:09;46.73;;;4.10;;
2838;SDS011;1427;48.510;9.060;2023-12-29T08:46:39;47.43;;;4.13;;
2838;SDS011;1427;48.510;9.060;2023-12-29T08:49:07;49.70;;;4.87;;
2838;SDS011;1427;48.510;9.060;2023-12-29T08:51:35;48.80;;;4.17;;
2838;SDS011;1427;48.510;9.060;2023-12-29T08:54:03;48.57;;;4.57;;
2838;SDS011;1427;48.510;9.060;2023-12-29T08:56:31;51.17;;;5.77;;
2838;SDS011;1427;48.510;9.060;2023-12-29T08:58:59;50.77;;;5.57;;
2838;SDS011;1427;48.510;9.060;2023-12-29T09:01:27;49.00;;;4.77;;
2838;SDS011;1427;48.510;9.060;2023-12-29T09:03:56;47.77;;;4.60;;
2838;SDS011;1427;48.510;9.060;2023-12-29T09:06:25;47.87;;;4.30;;
2838;SDS011;1427;48.510;9.060;2023-12-29T09:08:53;51.33;;;4.27;;
2838;SDS011;1427;48.510;9.060;2023-12-29T09:11:21;48.47;;;4.37;;
2838;SDS011;1427;48.510;9.060;2023-12-29T09:13:49;50.63;;;5.87;;
2838;SDS011;1427;48.510;9.060;2023-12-29T09:16:17;48.00;;;4.77;;
2838;SDS011;1427;48.510;9.060;2023-12-29T09:18:46;47.80;;;4.63;;
2838;SDS011;1427;48.510;9.060;2023-12-29T09:21:15;48.00;;;4.90;;
2838;SDS011;1427;48.510;9.060;2023-12-29T09:23:44;47.43;;;4.10;;
2838;SDS011;1427;48.510;9.060;2023-12-29T09:26:15;48.27;;;5.30;;
2838;SDS011;1427;48.510;9.060;2023-12-29T09:28:47;46.90;;;3.70;;
2838;SDS011;1427;48.510;9.060;2023-12-29T09:31:15;47.77;;;4.33;;
2838;SDS011;1427;48.510;9.060;2023-12-29T09:33:43;47.20;;;4.20;;
2838;SDS011;1427;48.510;9.060;2023-12-29T09:36:11;49.80;;;4.90;;
2838;SDS011;1427;48.510;9.060;2023-12-29T09:38:41;49.17;;;4.70;;
2838;SDS011;1427;48.510;9.060;2023-12-29T09:41:13;49.97;;;6.23;;
2838;SDS011;1427;48.510;9.060;2023-12-29T09:43:42;47.40;;;4.33;;
2838;SDS011;1427;48.510;9.060;2023-12-29T09:46:12;49.83;;;4.93;;
2838;SDS011;1427;48.510;9.060;2023-12-29T09:48:44;50.93;;;6.87;;
2838;SDS011;1427;48.510;9.060;2023-12-29T09:51:14;52.90;;;5.70;;
2838;SDS011;1427;48.510;9.060;2023-12-29T09:53:50;49.60;;;6.97;;
2838;SDS011;1427;48.510;9.060;2023-12-29T09:56:19;49.37;;;5.10;;
2838;SDS011;1427;48.510;9.060;2023-12-29T09:58:51;48.47;;;4.87;;
2838;SDS011;1427;48.510;9.060;2023-12-29T10:01:20;48.17;;;4.70;;
2838;SDS011;1427;48.510;9.060;2023-12-29T10:03:52;47.70;;;4.17;;
2838;SDS011;1427;48.510;9.060;2023-12-29T10:06:22;47.80;;;4.53;;
2838;SDS011;1427;48.510;9.060;2023-12-29T10:08:59;48.00;;;5.03;;
2838;SDS011;1427;48.510;9.060;2023-12-29T10:11:30;47.57;;;4.10;;
2838;SDS011;1427;48.510;9.060;2023-12-29T10:14:18;47.30;;;4.13;;
2838;SDS011;1427;48.510;9.060;2023-12-29T10:16:52;47.13;;;4.03;;
2838;SDS011;1427;48.510;9.060;2023-12-29T10:19:27;47.80;;;4.97;;
2838;SDS011;1427;48.510;9.060;2023-12-29T10:22:06;50.57;;;4.90;;
2838;SDS011;1427;48.510;9.060;2023-12-29T10:24:44;47.20;;;3.83;;
2838;SDS011;1427;48.510;9.060;2023-12-29T10:27:15;48.20;;;5.43;;
2838;SDS011;1427;48.510;9.060;2023-12-29T10:29:53;49.57;;;6.23;;
2838;SDS011;1427;48.510;9.060;2023-12-29T10:32:22;48.70;;;5.50;;
2838;SDS011;1427;48.510;9.060;2023-12-29T10:34:53;48.63;;;4.20;;
2838;SDS011;1427;48.510;9.060;2023-12-29T10:37:36;47.90;;;3.93;;
2838;SDS011;1427;48.510;9.060;2023-12-29T10:40:07;47.57;;;3.33;;
2838;SDS011;1427;48.510;9.060;2023-12-29T10:42:36;48.43;;;4.40;;
2838;SDS011;1427;48.510;9.060;2023-12-29T10:45:20;46.97;;;3.07;;
2838;SDS011;1427;48.510;9.060;2023-12-29T10:47:48;47.37;;;3.50;;
2838;SDS011;1427;48.510;9.060;2023-12-29T10:50:16;46.90;;;3.30;;
2838;SDS011;1427;48.510;9.060;2023-12-29T10:52:45;48.90;;;3.63;;
2838;SDS011;1427;48.510;9.060;2023-12-29T10:55:14;47.10;;;3.30;;
2838;SDS011;1427;48.510;9.060;2023-12-29T10:57:42;48.20;;;3.80;;
2838;SDS011;1427;48.510;9.060;2023-12-29T11:00:11;47.80;;;3.33;;
2838;SDS011;1427;48.510;9.060;2023-12-29T11:02:40;47.60;;;3.37;;
2838;SDS011;1427;48.510;9.060;2023-12-29T11:05:09;47.40;;;3.43;;
2838;SDS011;1427;48.510;9.060;2023-12-29T11:07:38;46.93;;;2.83;;
2838;SDS011;1427;48.510;9.060;2023-12-29T11:10:07;46.90;;;3.33;;
2838;SDS011;1427;48.510;9.060;2023-12-29T11:12:38;47.43;;;3.23;;
2838;SDS011;1427;48.510;9.060;2023-12-29T11:15:06;48.33;;;4.53;;
2838;SDS011;1427;48.510;9.060;2023-12-29T11:17:36;46.70;;;3.07;;
2838;SDS011;1427;48.510;9.060;2023-12-29T11:20:04;48.17;;;5.33;;
2838;SDS011;1427;48.510;9.060;2023-12-29T11:22:33;48.47;;;5.20;;
2838;SDS011;1427;48.510;9.060;2023-12-29T11:25:01;48.20;;;5.33;;
2838;SDS011;1427;48.510;9.060;2023-12-29T11:27:31;48.37;;;5.33;;
2838;SDS011;1427;48.510;9.060;2023-12-29T11:30:01;48.20;;;5.10;;
2838;SDS011;1427;48.510;9.060;2023-12-29T11:32:34;48.73;;;4.37;;
2838;SDS011;1427;48.510;9.060;2023-12-29T11:35:12;47.60;;;4.27;;
2838;SDS011;1427;48.510;9.060;2023-12-29T11:37:49;48.17;;;4.60;;
2838;SDS011;1427;48.510;9.060;2023-12-29T11:40:29;47.40;;;3.83;;
2838;SDS011;1427;48.510;9.060;2023-12-29T11:43:09;47.60;;;4.00;;
2838;SDS011;1427;48.510;9.060;2023-12-29T11:45:44;47.33;;;4.30;;
2838;SDS011;1427;48.510;9.060;2023-12-29T11:48:12;49.70;;;6.20;;
2838;SDS011;1427;48.510;9.060;2023-12-29T11:50:40;48.00;;;4.67;;
2838;SDS011;1427;48.510;9.060;2023-12-29T11:53:09;48.40;;;5.17;;
2838;SDS011;1427;48.510;9.060;2023-12-29T11:55:59;48.23;;;4.60;;
2838;SDS011;1427;48.510;9.060;2023-12-29T11:58:27;48.40;;;4.90;;
2838;SDS011;1427;48.510;9.060;2023-12-29T12:00:57;49.40;;;6.30;;
2838;SDS011;1427;48.510;9.060;2023-12-29T12:03:26;50.10;;;6.07;;
2838;SDS011;1427;48.510;9.060;2023-12-29T12:05:56;51.47;;;7.00;;
2838;SDS011;1427;48.510;9.060;2023-12-29T12:08:28;48.37;;;4.53;;
2838;SDS011;1427;48.510;9.060;2023-12-29T12:14:10;48.27;;;4.40;;
2838;SDS011;1427;48.510;9.060;2023-12-29T12:19:25;48.30;;;4.60;;
2838;SDS011;1427;48.510;9.060;2023-12-29T12:21:55;51.67;;;4.93;;
2838;SDS011;1427;48.510;9.060;2023-12-29T12:24:24;50.10;;;4.63;;
2838;SDS011;1427;48.510;9.060;2023-12-29T12:26:53;49.37;;;6.40;;
2838;SDS011;1427;48.510;9.060;2023-12-29T12:29:22;50.47;;;5.33;;
2838;SDS011;1427;48.510;9.060;2023-12-29T12:31:52;50.73;;;6.33;;
2838;SDS011;1427;48.510;9.060;2023-12-29T12:34:22;48.47;;;4.80;;
2838;SDS011;1427;48.510;9.060;2023-12-29T12:36:52;50.50;;;5.87;;
2838;SDS011;1427;48.510;9.060;2023-12-29T12:39:23;51.20;;;6.50;;
2838;SDS011;1427;48.510;9.060;2023-12-29T12:41:51;48.93;;;5.37;;
2838;SDS011;1427;48.510;9.060;2023-12-29T12:44:19;48.20;;;4.67;;
2838;SDS011;1427;48.510;9.060;2023-12-29T12:46:49;47.87;;;4.70;;
2838;SDS011;1427;48.510;9.060;2023-12-29T12:49:19;52.93;;;5.50;;
2838;SDS011;1427;48.510;9.060;2023-12-29T12:51:50;55.70;;;7.30;;
2838;SDS011;1427;48.510;9.060;2023-12-29T12:54:18;50.40;;;5.07;;
2838;SDS011;1427;48.510;9.060;2023-12-29T12:56:47;47.80;;;4.40;;
2838;SDS011;1427;48.510;9.060;2023-12-29T12:59:16;46.80;;;3.37;;
2838;SDS011;1427;48.510;9.060;2023-12-29T13:01:44;46.80;;;3.83;;
2838;SDS011;1427;48.510;9.060;2023-12-29T13:04:13;47.47;;;4.10;;
2838;SDS011;1427;48.510;9.060;2023-12-29T13:06:43;47.90;;;4.13;;
2838;SDS011;1427;48.510;9.060;2023-12-29T13:09:16;48.60;;;3.77;;
2838;SDS011;1427;48.510;9.060;2023-12-29T13:11:46;48.30;;;3.97;;
2838;SDS011;1427;48.510;9.060;2023-12-29T13:14:20;46.97;;;3.70;;
2838;SDS011;1427;48.510;9.060;2023-12-29T13:16:49;46.27;;;3.50;;
2838;SDS011;1427;48.510;9.060;2023-12-29T13:19:18;50.17;;;4.57;;
2838;SDS011;1427;48.510;9.060;2023-12-29T13:21:51;47.67;;;4.90;;
2838;SDS011;1427;48.510;9.060;2023-12-29T13:24:22;47.80;;;4.33;;
2838;SDS011;1427;48.510;9.060;2023-12-29T13:26:52;47.60;;;3.47;;
2838;SDS011;1427;48.510;9.060;2023-12-29T13:29:23;49.70;;;4.67;;
2838;SDS011;1427;48.510;9.060;2023-12-29T13:31:56;47.93;;;3.93;;
2838;SDS011;1427;48.510;9.060;2023-12-29T13:34:30;47.23;;;4.53;;
2838;SDS011;1427;48.510;9.060;2023-12-29T13:37:05;46.77;;;3.77;;
2838;SDS011;1427;48.510;9.060;2023-12-29T13:39:38;47.90;;;5.13;;
2838;SDS011;1427;48.510;9.060;2023-12-29T13:42:10;48.97;;;4.97;;
2838;SDS011;1427;48.510;9.060;2023-12-29T13:44:43;48.20;;;4.50;;
2838;SDS011;1427;48.510;9.060;2023-12-29T13:47:12;47.37;;;3.83;;
2838;SDS011;1427;48.510;9.060;2023-12-29T13:49:41;46.80;;;3.70;;
2838;SDS011;1427;48.510;9.060;2023-12-29T13:52:11;47.83;;;4.27;;
2838;SDS011;1427;48.510;9.060;2023-12-29T13:54:41;48.20;;;4.70;;
2838;SDS011;1427;48.510;9.060;2023-12-29T13:57:10;47.10;;;3.60;;
2838;SDS011;1427;48.510;9.060;2023-12-29T13:59:38;47.10;;;3.93;;
2838;SDS011;1427;48.510;9.060;2023-12-29T14:02:19;50.53;;;5.10;;
2838;SDS011;1427;48.510;9.060;2023-12-29T14:07:43;50.00;;;5.37;;
2838;SDS011;1427;48.510;9.060;2023-12-29T14:10:14;47.83;;;4.13;;
2838;SDS011;1427;48.510;9.060;2023-12-29T14:12:42;49.57;;;5.60;;
2838;SDS011;1427;48.510;9.060;2023-12-29T14:15:10;47.90;;;4.37;;
2838;SDS011;1427;48.510;9.060;2023-12-29T14:17:39;48.67;;;5.70;;
2838;SDS011;1427;48.510;9.060;2023-12-29T14:20:07;47.50;;;4.40;;
2838;SDS011;1427;48.510;9.060;2023-12-29T14:22:36;48.40;;;3.73;;
2838;SDS011;1427;48.510;9.060;2023-12-29T14:25:06;50.47;;;4.50;;
2838;SDS011;1427;48.510;9.060;2023-12-29T14:27:36;48.20;;;5.03;;
2838;SDS011;1427;48.510;9.060;2023-12-29T14:30:17;48.27;;;4.43;;
2838;SDS011;1427;48.510;9.060;2023-12-29T14:32:46;47.60;;;4.40;;
2838;SDS011;1427;48.510;9.060;2023-12-29T14:35:14;47.77;;;4.20;;
2838;SDS011;1427;48.510;9.060;2023-12-29T14:37:43;48.93;;;4.50;;
2838;SDS011;1427;48.510;9.060;2023-12-29T14:40:13;48.23;;;5.17;;
2838;SDS011;1427;48.510;9.060;2023-12-29T14:42:41;47.80;;;4.47;;
2838;SDS011;1427;48.510;9.060;2023-12-29T14:45:10;48.30;;;4.03;;
2838;SDS011;1427;48.510;9.060;2023-12-29T14:47:38;47.63;;;3.77;;
2838;SDS011;1427;48.510;9.060;2023-12-29T14:50:06;47.27;;;3.87;;
2838;SDS011;1427;48.510;9.060;2023-12-29T14:52:35;49.60;;;4.53;;
2838;SDS011;1427;48.510;9.060;2023-12-29T14:55:03;47.70;;;4.33;;
2838;SDS011;1427;48.510;9.060;2023-12-29T14:57:34;47.07;;;3.97;;
2838;SDS011;1427;48.510;9.060;2023-12-29T15:00:02;47.10;;;3.80;;
2838;SDS011;1427;48.510;9.060;2023-12-29T15:02:31;49.13;;;4.57;;
2838;SDS011;1427;48.510;9.060;2023-12-29T15:04:59;47.07;;;3.90;;
2838;SDS011;1427;48.510;9.060;2023-12-29T15:07:28;48.50;;;5.53;;
2838;SDS011;1427;48.510;9.060;2023-12-29T15:09:57;48.27;;;4.67;;
2838;SDS011;1427;48.510;9.060;2023-12-29T15:12:25;47.23;;;3.20;;
2838;SDS011;1427;48.510;9.060;2023-12-29T15:14:55;47.00;;;3.80;;
2838;SDS011;1427;48.510;9.060;2023-12-29T15:17:23;47.10;;;3.83;;
2838;SDS011;1427;48.510;9.060;2023-12-29T15:19:51;47.17;;;4.03;;
2838;SDS011;1427;48.510;9.060;2023-12-29T15:22:19;48.10;;;4.50;;
2838;SDS011;1427;48.510;9.060;2023-12-29T15:24:52;48.47;;;4.17;;
2838;SDS011;1427;48.510;9.060;2023-12-29T15:27:21;47.80;;;4.27;;